createdAt,value
2022-12-13T00:08:26.847Z,0.00
2022-12-13T00:20:27.274Z,0.00
2022-12-13T00:32:27.708Z,0.00
2022-12-13T00:44:28.168Z,0.00
2022-12-13T00:56:28.611Z,0.00
2022-12-13T01:08:29.164Z,0.00
2022-12-13T01:20:29.506Z,0.02
2022-12-13T01:32:29.999Z,0.00
2022-12-13T01:44:30.388Z,0.00
2022-12-13T01:56:30.890Z,1.14
2022-12-13T02:08:31.350Z,0.34
2022-12-13T02:20:31.800Z,0.06
2022-12-13T02:32:32.228Z,0.00
2022-12-13T02:44:32.675Z,0.00
2022-12-13T02:56:33.146Z,0.00
2022-12-13T03:08:33.606Z,0.00
2022-12-13T03:20:34.034Z,0.22
2022-12-13T03:32:34.471Z,0.06
2022-12-13T03:44:34.916Z,0.00
2022-12-13T03:56:35.411Z,0.00
2022-12-13T04:08:35.922Z,0.00
2022-12-13T04:20:36.304Z,0.00
2022-12-13T04:32:36.745Z,0.02
2022-12-13T04:44:37.386Z,0.94
2022-12-13T04:56:37.634Z,0.62
2022-12-13T05:08:38.048Z,0.01
2022-12-13T05:20:38.535Z,0.01
2022-12-13T05:32:42.756Z,0.01
2022-12-13T05:44:39.433Z,0.01
2022-12-13T05:56:39.882Z,0.01
2022-12-13T06:08:40.432Z,0.76
2022-12-13T06:20:40.809Z,0.01
2022-12-13T06:32:43.852Z,0.01
2022-12-13T06:44:41.684Z,0.01
2022-12-13T06:56:42.156Z,0.01
2022-12-13T07:08:42.629Z,0.01
2022-12-13T07:20:43.060Z,0.01
2022-12-13T07:32:43.478Z,1.23
2022-12-13T07:44:43.964Z,0.23
2022-12-13T07:56:44.425Z,0.45
2022-12-13T08:08:44.831Z,0.36
2022-12-13T08:20:45.285Z,0.26
2022-12-13T08:32:45.815Z,0.21
2022-12-13T08:44:46.227Z,0.42
2022-12-13T08:56:46.643Z,0.43
2022-12-13T09:08:51.501Z,0.75
2022-12-13T09:20:47.565Z,0.84
2022-12-13T09:32:48.053Z,0.89
2022-12-13T09:45:01.013Z,1.14
2022-12-13T09:56:48.924Z,3.12
2022-12-13T10:08:49.347Z,1.91
2022-12-13T10:20:49.772Z,1.94
2022-12-13T10:32:50.258Z,1.80
2022-12-13T10:44:50.737Z,1.07
2022-12-13T10:56:51.189Z,2.23
2022-12-13T11:08:51.644Z,2.17
2022-12-13T11:20:54.260Z,1.57
2022-12-13T11:32:57.448Z,2.15
2022-12-13T11:44:52.984Z,1.74
2022-12-13T11:57:00.017Z,2.02
2022-12-13T12:08:53.906Z,1.86
2022-12-13T12:20:54.364Z,1.40
2022-12-13T12:32:54.824Z,1.04
2022-12-13T12:44:55.386Z,1.26
2022-12-13T12:56:55.732Z,2.24
2022-12-13T13:08:56.174Z,1.14
2022-12-13T13:20:56.721Z,1.73
2022-12-13T13:32:57.203Z,1.61
2022-12-13T13:44:57.522Z,1.18
2022-12-13T13:56:57.937Z,0.31
2022-12-13T14:08:58.416Z,1.05
2022-12-13T14:20:58.903Z,0.75
2022-12-13T14:32:59.330Z,0.84
2022-12-13T14:44:59.757Z,1.30
2022-12-13T14:57:00.236Z,0.82
2022-12-13T15:09:00.715Z,0.54
2022-12-13T15:21:01.144Z,0.47
2022-12-13T15:33:01.590Z,0.37
2022-12-13T15:45:02.047Z,0.69
2022-12-13T15:57:02.482Z,0.33
2022-12-13T16:09:02.958Z,0.36
2022-12-13T16:21:03.382Z,0.49
2022-12-13T16:33:18.554Z,0.60
2022-12-13T16:45:40.115Z,0.31
2022-12-13T16:57:04.767Z,0.06
2022-12-13T17:09:05.191Z,0.25
2022-12-13T17:21:05.650Z,0.16
2022-12-13T17:33:06.093Z,0.20
2022-12-13T17:45:06.549Z,0.13
2022-12-13T17:57:06.955Z,0.14
2022-12-13T18:09:07.469Z,0.06
2022-12-13T18:21:08.022Z,0.00
2022-12-13T18:33:08.357Z,0.00
2022-12-13T18:45:08.814Z,0.00
2022-12-13T18:57:09.254Z,0.00
2022-12-13T19:09:09.745Z,0.00
2022-12-13T19:21:10.168Z,0.00
2022-12-13T19:33:10.596Z,0.20
2022-12-13T19:45:11.054Z,0.00
2022-12-13T19:57:11.541Z,0.00
2022-12-13T20:09:12.045Z,0.00
2022-12-13T20:21:13.279Z,0.00
2022-12-13T20:33:12.938Z,0.00
2022-12-13T20:45:13.340Z,0.00
2022-12-13T20:57:13.771Z,0.00
2022-12-13T21:09:14.288Z,0.00
2022-12-13T21:21:14.632Z,0.02
2022-12-13T21:33:15.308Z,0.73
2022-12-13T21:45:15.569Z,0.00
2022-12-13T21:57:16.032Z,0.02
2022-12-13T22:09:16.480Z,0.01
2022-12-13T22:21:16.935Z,0.01
2022-12-13T22:33:17.363Z,0.08
2022-12-13T22:45:17.828Z,0.40
2022-12-13T22:57:18.268Z,0.67
2022-12-13T23:09:18.751Z,0.41
2022-12-13T23:21:19.181Z,0.03
2022-12-13T23:33:19.611Z,0.10
2022-12-13T23:45:20.058Z,0.05
2022-12-13T23:57:20.557Z,0.11
